Salto de Pirapora, Brazil
Current Conditions -  °F | °C
As of 2:00 AM on Wednesday 26 Nov 2014 (Local Time) from SBKP Reporting Station
Light Rain Light Rain  
Wind Chill: 70°   Ceiling: 4000
Heat Index: 70°   Visibility: 4mi
Dew Point: 68°   Wind: 3mph
Humidity: 94%   Direction: 80°E
Pressure: 29.85"   Gusts: NA
Location:  23.6°S, 47.57°W
Report Text: SBKP 260400Z 08003KT 7000 -RA FEW007 BKN040 OVC070 21/20 Q1011
Loading
Personal Weather Stations






























Interactive Weather Map New forecast layout! Learn more

10-Day Weather Forecast

Advertisements
Track Severe Weather on mobile